sensor_id;sensor_type;location;lat;lon;timestamp;P1;durP1;ratioP1;P2;durP2;ratioP2
55312;SDS011;46892;45.668;11.756;2022-09-09T00:15:26;6.37;;;3.60;;
55312;SDS011;46892;45.668;11.756;2022-09-09T00:18:56;5.00;;;3.60;;
55312;SDS011;46892;45.668;11.756;2022-09-09T00:21:08;11.37;;;4.03;;
55312;SDS011;46892;45.668;11.756;2022-09-09T00:23:43;7.47;;;4.13;;
55312;SDS011;46892;45.668;11.756;2022-09-09T00:28:51;6.00;;;3.90;;
55312;SDS011;46892;45.668;11.756;2022-09-09T00:31:26;9.53;;;4.50;;
55312;SDS011;46892;45.668;11.756;2022-09-09T00:33:54;8.37;;;4.23;;
55312;SDS011;46892;45.668;11.756;2022-09-09T00:36:24;5.95;;;3.92;;
55312;SDS011;46892;45.668;11.756;2022-09-09T00:38:57;9.65;;;4.75;;
55312;SDS011;46892;45.668;11.756;2022-09-09T00:47:34;12.10;;;4.50;;
55312;SDS011;46892;45.668;11.756;2022-09-09T00:50:14;8.83;;;4.43;;
55312;SDS011;46892;45.668;11.756;2022-09-09T00:54:02;6.33;;;4.07;;
55312;SDS011;46892;45.668;11.756;2022-09-09T00:56:16;7.87;;;4.73;;
55312;SDS011;46892;45.668;11.756;2022-09-09T01:01:52;10.10;;;5.07;;
55312;SDS011;46892;45.668;11.756;2022-09-09T01:04:23;7.87;;;5.37;;
55312;SDS011;46892;45.668;11.756;2022-09-09T01:07:00;7.97;;;5.83;;
55312;SDS011;46892;45.668;11.756;2022-09-09T01:12:24;7.97;;;5.60;;
55312;SDS011;46892;45.668;11.756;2022-09-09T01:15:12;6.60;;;4.83;;
55312;SDS011;46892;45.668;11.756;2022-09-09T01:17:50;12.10;;;5.67;;
55312;SDS011;46892;45.668;11.756;2022-09-09T01:20:24;10.70;;;5.67;;
55312;SDS011;46892;45.668;11.756;2022-09-09T01:26:25;8.57;;;5.27;;
55312;SDS011;46892;45.668;11.756;2022-09-09T01:28:50;7.53;;;5.60;;
55312;SDS011;46892;45.668;11.756;2022-09-09T01:31:21;8.97;;;5.23;;
55312;SDS011;46892;45.668;11.756;2022-09-09T01:33:51;7.63;;;5.37;;
55312;SDS011;46892;45.668;11.756;2022-09-09T01:38:46;8.97;;;5.67;;
55312;SDS011;46892;45.668;11.756;2022-09-09T01:41:12;10.67;;;5.70;;
55312;SDS011;46892;45.668;11.756;2022-09-09T01:43:37;8.70;;;5.97;;
55312;SDS011;46892;45.668;11.756;2022-09-09T01:46:03;10.00;;;5.97;;
55312;SDS011;46892;45.668;11.756;2022-09-09T01:48:29;10.37;;;5.20;;
55312;SDS011;46892;45.668;11.756;2022-09-09T01:50:56;8.77;;;5.30;;
55312;SDS011;46892;45.668;11.756;2022-09-09T01:53:21;7.63;;;5.30;;
55312;SDS011;46892;45.668;11.756;2022-09-09T02:04:26;8.30;;;4.60;;
55312;SDS011;46892;45.668;11.756;2022-09-09T02:07:02;9.18;;;4.45;;
55312;SDS011;46892;45.668;11.756;2022-09-09T02:09:39;10.67;;;4.93;;
55312;SDS011;46892;45.668;11.756;2022-09-09T02:12:11;8.13;;;4.70;;
55312;SDS011;46892;45.668;11.756;2022-09-09T02:14:44;9.43;;;4.47;;
55312;SDS011;46892;45.668;11.756;2022-09-09T02:17:16;8.70;;;4.13;;
55312;SDS011;46892;45.668;11.756;2022-09-09T02:19:52;9.27;;;4.10;;
55312;SDS011;46892;45.668;11.756;2022-09-09T02:22:22;6.63;;;3.83;;
55312;SDS011;46892;45.668;11.756;2022-09-09T02:24:50;6.23;;;4.20;;
55312;SDS011;46892;45.668;11.756;2022-09-09T02:27:18;9.23;;;4.00;;
55312;SDS011;46892;45.668;11.756;2022-09-09T02:29:47;10.90;;;4.00;;
55312;SDS011;46892;45.668;11.756;2022-09-09T02:32:17;8.57;;;4.67;;
55312;SDS011;46892;45.668;11.756;2022-09-09T02:34:53;9.27;;;4.07;;
55312;SDS011;46892;45.668;11.756;2022-09-09T02:37:23;6.43;;;4.17;;
55312;SDS011;46892;45.668;11.756;2022-09-09T02:39:54;6.87;;;3.80;;
55312;SDS011;46892;45.668;11.756;2022-09-09T02:42:20;9.30;;;5.30;;
55312;SDS011;46892;45.668;11.756;2022-09-09T02:44:46;6.33;;;4.07;;
55312;SDS011;46892;45.668;11.756;2022-09-09T02:55:28;7.00;;;4.20;;
55312;SDS011;46892;45.668;11.756;2022-09-09T02:58:11;9.17;;;3.83;;
55312;SDS011;46892;45.668;11.756;2022-09-09T03:00:41;7.57;;;4.17;;
55312;SDS011;46892;45.668;11.756;2022-09-09T03:03:08;5.60;;;3.53;;
55312;SDS011;46892;45.668;11.756;2022-09-09T03:05:34;6.83;;;3.70;;
55312;SDS011;46892;45.668;11.756;2022-09-09T03:08:00;6.07;;;3.03;;
55312;SDS011;46892;45.668;11.756;2022-09-09T03:10:27;6.30;;;3.60;;
55312;SDS011;46892;45.668;11.756;2022-09-09T03:12:52;7.90;;;3.70;;
55312;SDS011;46892;45.668;11.756;2022-09-09T03:15:18;7.50;;;3.57;;
55312;SDS011;46892;45.668;11.756;2022-09-09T03:17:44;5.53;;;2.97;;
55312;SDS011;46892;45.668;11.756;2022-09-09T03:20:09;8.13;;;3.60;;
55312;SDS011;46892;45.668;11.756;2022-09-09T03:22:35;6.83;;;3.03;;
55312;SDS011;46892;45.668;11.756;2022-09-09T03:25:01;6.67;;;3.00;;
55312;SDS011;46892;45.668;11.756;2022-09-09T03:27:27;5.80;;;3.00;;
55312;SDS011;46892;45.668;11.756;2022-09-09T03:29:53;6.10;;;2.90;;
55312;SDS011;46892;45.668;11.756;2022-09-09T03:32:20;5.67;;;2.87;;
55312;SDS011;46892;45.668;11.756;2022-09-09T03:34:47;5.57;;;3.00;;
55312;SDS011;46892;45.668;11.756;2022-09-09T03:37:15;8.53;;;3.67;;
55312;SDS011;46892;45.668;11.756;2022-09-09T03:39:42;5.60;;;2.93;;
55312;SDS011;46892;45.668;11.756;2022-09-09T03:42:08;6.83;;;2.90;;
55312;SDS011;46892;45.668;11.756;2022-09-09T03:44:34;6.03;;;2.90;;
55312;SDS011;46892;45.668;11.756;2022-09-09T03:46:59;5.23;;;3.03;;
55312;SDS011;46892;45.668;11.756;2022-09-09T03:49:25;5.97;;;3.17;;
55312;SDS011;46892;45.668;11.756;2022-09-09T03:51:54;4.53;;;3.00;;
55312;SDS011;46892;45.668;11.756;2022-09-09T03:54:21;7.77;;;2.80;;
55312;SDS011;46892;45.668;11.756;2022-09-09T03:56:48;6.90;;;3.03;;
55312;SDS011;46892;45.668;11.756;2022-09-09T03:59:13;5.87;;;2.90;;
55312;SDS011;46892;45.668;11.756;2022-09-09T04:01:39;6.47;;;2.83;;
55312;SDS011;46892;45.668;11.756;2022-09-09T04:04:05;5.07;;;2.70;;
55312;SDS011;46892;45.668;11.756;2022-09-09T04:06:30;6.73;;;2.50;;
55312;SDS011;46892;45.668;11.756;2022-09-09T04:08:56;6.63;;;3.10;;
55312;SDS011;46892;45.668;11.756;2022-09-09T04:11:22;5.77;;;3.07;;
55312;SDS011;46892;45.668;11.756;2022-09-09T04:13:47;6.37;;;3.40;;
55312;SDS011;46892;45.668;11.756;2022-09-09T04:16:14;9.70;;;3.90;;
55312;SDS011;46892;45.668;11.756;2022-09-09T04:18:40;10.33;;;3.53;;
55312;SDS011;46892;45.668;11.756;2022-09-09T04:21:06;9.20;;;3.43;;
55312;SDS011;46892;45.668;11.756;2022-09-09T04:23:33;7.73;;;3.07;;
55312;SDS011;46892;45.668;11.756;2022-09-09T04:26:00;4.83;;;3.20;;
55312;SDS011;46892;45.668;11.756;2022-09-09T04:28:28;6.10;;;3.00;;
55312;SDS011;46892;45.668;11.756;2022-09-09T04:30:55;5.63;;;3.40;;
55312;SDS011;46892;45.668;11.756;2022-09-09T04:33:23;5.53;;;2.70;;
55312;SDS011;46892;45.668;11.756;2022-09-09T04:35:51;7.13;;;2.58;;
55312;SDS011;46892;45.668;11.756;2022-09-09T04:38:19;5.37;;;3.20;;
55312;SDS011;46892;45.668;11.756;2022-09-09T04:40:48;6.17;;;3.17;;
55312;SDS011;46892;45.668;11.756;2022-09-09T04:43:16;8.27;;;3.07;;
55312;SDS011;46892;45.668;11.756;2022-09-09T04:45:44;7.37;;;3.30;;
55312;SDS011;46892;45.668;11.756;2022-09-09T04:48:12;5.93;;;3.00;;
55312;SDS011;46892;45.668;11.756;2022-09-09T04:50:38;6.83;;;3.20;;
55312;SDS011;46892;45.668;11.756;2022-09-09T04:53:05;8.27;;;3.10;;
55312;SDS011;46892;45.668;11.756;2022-09-09T04:55:31;5.30;;;3.00;;
55312;SDS011;46892;45.668;11.756;2022-09-09T04:57:57;7.37;;;3.20;;
55312;SDS011;46892;45.668;11.756;2022-09-09T05:00:23;5.47;;;3.03;;
55312;SDS011;46892;45.668;11.756;2022-09-09T05:02:49;5.23;;;3.00;;
55312;SDS011;46892;45.668;11.756;2022-09-09T05:05:16;7.20;;;3.03;;
55312;SDS011;46892;45.668;11.756;2022-09-09T05:07:41;6.17;;;3.37;;
55312;SDS011;46892;45.668;11.756;2022-09-09T05:10:08;5.00;;;3.63;;
55312;SDS011;46892;45.668;11.756;2022-09-09T05:12:35;6.03;;;3.53;;
55312;SDS011;46892;45.668;11.756;2022-09-09T05:15:01;5.83;;;3.43;;
55312;SDS011;46892;45.668;11.756;2022-09-09T05:17:27;8.63;;;3.87;;
55312;SDS011;46892;45.668;11.756;2022-09-09T05:19:52;5.07;;;3.30;;
55312;SDS011;46892;45.668;11.756;2022-09-09T05:22:21;7.63;;;4.00;;
55312;SDS011;46892;45.668;11.756;2022-09-09T05:24:48;7.88;;;3.50;;
55312;SDS011;46892;45.668;11.756;2022-09-09T05:27:16;7.80;;;4.20;;
55312;SDS011;46892;45.668;11.756;2022-09-09T05:29:43;7.83;;;4.20;;
55312;SDS011;46892;45.668;11.756;2022-09-09T05:32:09;6.83;;;3.80;;
55312;SDS011;46892;45.668;11.756;2022-09-09T05:34:35;5.43;;;4.03;;
55312;SDS011;46892;45.668;11.756;2022-09-09T05:37:02;7.87;;;4.63;;
55312;SDS011;46892;45.668;11.756;2022-09-09T05:39:29;6.27;;;4.27;;
55312;SDS011;46892;45.668;11.756;2022-09-09T05:41:55;8.17;;;4.60;;
55312;SDS011;46892;45.668;11.756;2022-09-09T05:44:20;6.23;;;4.23;;
55312;SDS011;46892;45.668;11.756;2022-09-09T05:46:48;8.83;;;3.93;;
55312;SDS011;46892;45.668;11.756;2022-09-09T05:49:14;7.03;;;4.30;;
55312;SDS011;46892;45.668;11.756;2022-09-09T05:51:40;8.60;;;4.60;;
55312;SDS011;46892;45.668;11.756;2022-09-09T05:54:07;7.87;;;4.60;;
55312;SDS011;46892;45.668;11.756;2022-09-09T05:56:33;9.10;;;4.97;;
55312;SDS011;46892;45.668;11.756;2022-09-09T05:58:59;8.33;;;4.63;;
55312;SDS011;46892;45.668;11.756;2022-09-09T06:01:28;7.20;;;4.67;;
55312;SDS011;46892;45.668;11.756;2022-09-09T06:03:56;7.53;;;4.53;;
55312;SDS011;46892;45.668;11.756;2022-09-09T06:06:22;8.27;;;3.43;;
55312;SDS011;46892;45.668;11.756;2022-09-09T06:08:51;8.00;;;3.77;;
55312;SDS011;46892;45.668;11.756;2022-09-09T06:11:22;7.03;;;3.90;;
55312;SDS011;46892;45.668;11.756;2022-09-09T06:13:51;5.77;;;3.57;;
55312;SDS011;46892;45.668;11.756;2022-09-09T06:16:19;8.13;;;3.60;;
55312;SDS011;46892;45.668;11.756;2022-09-09T06:18:48;5.93;;;3.80;;
55312;SDS011;46892;45.668;11.756;2022-09-09T06:21:15;8.40;;;3.50;;
55312;SDS011;46892;45.668;11.756;2022-09-09T06:23:48;5.30;;;3.73;;
55312;SDS011;46892;45.668;11.756;2022-09-09T06:28:45;5.40;;;3.60;;
55312;SDS011;46892;45.668;11.756;2022-09-09T06:31:13;8.00;;;3.80;;
55312;SDS011;46892;45.668;11.756;2022-09-09T06:33:42;7.82;;;4.18;;
55312;SDS011;46892;45.668;11.756;2022-09-09T06:36:12;10.27;;;3.97;;
55312;SDS011;46892;45.668;11.756;2022-09-09T06:38:39;8.77;;;3.97;;
55312;SDS011;46892;45.668;11.756;2022-09-09T06:41:06;6.20;;;3.90;;
55312;SDS011;46892;45.668;11.756;2022-09-09T06:43:33;11.47;;;3.80;;
55312;SDS011;46892;45.668;11.756;2022-09-09T06:46:03;10.70;;;4.07;;
55312;SDS011;46892;45.668;11.756;2022-09-09T06:48:31;6.20;;;3.20;;
55312;SDS011;46892;45.668;11.756;2022-09-09T06:51:04;4.70;;;3.07;;
55312;SDS011;46892;45.668;11.756;2022-09-09T06:53:32;7.17;;;2.90;;
55312;SDS011;46892;45.668;11.756;2022-09-09T06:56:00;5.20;;;2.73;;
55312;SDS011;46892;45.668;11.756;2022-09-09T06:58:27;5.90;;;3.00;;
55312;SDS011;46892;45.668;11.756;2022-09-09T07:01:01;7.03;;;3.83;;
55312;SDS011;46892;45.668;11.756;2022-09-09T07:03:30;7.63;;;3.63;;
55312;SDS011;46892;45.668;11.756;2022-09-09T07:05:56;5.77;;;3.07;;
55312;SDS011;46892;45.668;11.756;2022-09-09T07:08:22;5.83;;;3.57;;
55312;SDS011;46892;45.668;11.756;2022-09-09T07:10:50;6.83;;;3.27;;
55312;SDS011;46892;45.668;11.756;2022-09-09T07:13:18;5.07;;;2.87;;
55312;SDS011;46892;45.668;11.756;2022-09-09T07:15:51;5.73;;;3.13;;
55312;SDS011;46892;45.668;11.756;2022-09-09T07:18:17;7.53;;;3.00;;
55312;SDS011;46892;45.668;11.756;2022-09-09T07:20:52;6.70;;;3.30;;
55312;SDS011;46892;45.668;11.756;2022-09-09T07:23:18;4.90;;;3.20;;
55312;SDS011;46892;45.668;11.756;2022-09-09T07:25:45;5.50;;;3.03;;
55312;SDS011;46892;45.668;11.756;2022-09-09T07:28:10;7.07;;;2.80;;
55312;SDS011;46892;45.668;11.756;2022-09-09T07:30:36;6.73;;;2.80;;
55312;SDS011;46892;45.668;11.756;2022-09-09T07:33:02;7.50;;;2.90;;
55312;SDS011;46892;45.668;11.756;2022-09-09T07:35:28;5.67;;;2.87;;
55312;SDS011;46892;45.668;11.756;2022-09-09T07:37:54;5.67;;;2.73;;
55312;SDS011;46892;45.668;11.756;2022-09-09T07:40:19;5.97;;;2.80;;
55312;SDS011;46892;45.668;11.756;2022-09-09T07:42:46;5.10;;;2.70;;
55312;SDS011;46892;45.668;11.756;2022-09-09T07:45:12;8.40;;;2.70;;
55312;SDS011;46892;45.668;11.756;2022-09-09T07:47:39;6.33;;;2.67;;
55312;SDS011;46892;45.668;11.756;2022-09-09T07:50:07;7.13;;;2.70;;
55312;SDS011;46892;45.668;11.756;2022-09-09T07:52:34;5.83;;;2.57;;
55312;SDS011;46892;45.668;11.756;2022-09-09T07:55:00;6.55;;;2.60;;
55312;SDS011;46892;45.668;11.756;2022-09-09T07:57:28;5.60;;;2.97;;
55312;SDS011;46892;45.668;11.756;2022-09-09T07:59:55;5.95;;;2.35;;
55312;SDS011;46892;45.668;11.756;2022-09-09T08:02:22;5.37;;;2.53;;
55312;SDS011;46892;45.668;11.756;2022-09-09T08:04:50;8.82;;;2.95;;
55312;SDS011;46892;45.668;11.756;2022-09-09T08:07:16;5.78;;;2.70;;
55312;SDS011;46892;45.668;11.756;2022-09-09T08:09:42;8.73;;;3.03;;
55312;SDS011;46892;45.668;11.756;2022-09-09T08:12:08;5.93;;;2.50;;
55312;SDS011;46892;45.668;11.756;2022-09-09T08:14:37;6.37;;;2.47;;
55312;SDS011;46892;45.668;11.756;2022-09-09T08:17:05;4.90;;;2.40;;
55312;SDS011;46892;45.668;11.756;2022-09-09T08:19:31;7.17;;;2.27;;
55312;SDS011;46892;45.668;11.756;2022-09-09T08:22:00;4.97;;;2.50;;
55312;SDS011;46892;45.668;11.756;2022-09-09T08:24:27;4.45;;;2.20;;
55312;SDS011;46892;45.668;11.756;2022-09-09T08:26:53;6.95;;;2.47;;
55312;SDS011;46892;45.668;11.756;2022-09-09T08:29:19;5.23;;;2.00;;
55312;SDS011;46892;45.668;11.756;2022-09-09T08:31:46;4.63;;;2.20;;
55312;SDS011;46892;45.668;11.756;2022-09-09T08:34:19;5.25;;;2.53;;
55312;SDS011;46892;45.668;11.756;2022-09-09T08:36:46;4.75;;;2.15;;
55312;SDS011;46892;45.668;11.756;2022-09-09T08:39:13;3.38;;;2.10;;
55312;SDS011;46892;45.668;11.756;2022-09-09T08:47:20;6.38;;;2.00;;
55312;SDS011;46892;45.668;11.756;2022-09-09T08:57:56;4.82;;;2.00;;
55312;SDS011;46892;45.668;11.756;2022-09-09T09:00:28;4.85;;;2.38;;
55312;SDS011;46892;45.668;11.756;2022-09-09T09:05:51;4.18;;;2.03;;
55312;SDS011;46892;45.668;11.756;2022-09-09T09:11:26;3.28;;;1.73;;
55312;SDS011;46892;45.668;11.756;2022-09-09T09:13:53;3.72;;;2.00;;
55312;SDS011;46892;45.668;11.756;2022-09-09T09:18:57;5.22;;;2.17;;
55312;SDS011;46892;45.668;11.756;2022-09-09T09:21:36;5.70;;;2.10;;
55312;SDS011;46892;45.668;11.756;2022-09-09T09:24:18;4.68;;;2.20;;
55312;SDS011;46892;45.668;11.756;2022-09-09T09:27:07;6.60;;;2.63;;
55312;SDS011;46892;45.668;11.756;2022-09-09T09:29:40;4.97;;;2.00;;
55312;SDS011;46892;45.668;11.756;2022-09-09T09:32:10;3.97;;;1.60;;
55312;SDS011;46892;45.668;11.756;2022-09-09T09:34:41;2.97;;;1.90;;
55312;SDS011;46892;45.668;11.756;2022-09-09T09:37:12;5.45;;;1.58;;
55312;SDS011;46892;45.668;11.756;2022-09-09T09:39:44;3.00;;;1.27;;
55312;SDS011;46892;45.668;11.756;2022-09-09T09:42:14;5.22;;;1.40;;
55312;SDS011;46892;45.668;11.756;2022-09-09T09:44:42;3.13;;;1.40;;
55312;SDS011;46892;45.668;11.756;2022-09-09T09:52:23;2.42;;;0.88;;
55312;SDS011;46892;45.668;11.756;2022-09-09T09:54:54;2.70;;;1.30;;
55312;SDS011;46892;45.668;11.756;2022-09-09T09:57:26;3.70;;;1.20;;
55312;SDS011;46892;45.668;11.756;2022-09-09T10:00:28;3.38;;;1.08;;
55312;SDS011;46892;45.668;11.756;2022-09-09T10:02:48;3.10;;;1.20;;
55312;SDS011;46892;45.668;11.756;2022-09-09T10:05:18;3.38;;;1.30;;
55312;SDS011;46892;45.668;11.756;2022-09-09T10:07:46;1.65;;;1.20;;
55312;SDS011;46892;45.668;11.756;2022-09-09T10:10:20;3.95;;;1.83;;
55312;SDS011;46892;45.668;11.756;2022-09-09T10:13:00;2.47;;;1.48;;
55312;SDS011;46892;45.668;11.756;2022-09-09T10:15:48;3.15;;;1.50;;
55312;SDS011;46892;45.668;11.756;2022-09-09T10:35:27;5.13;;;1.65;;
55312;SDS011;46892;45.668;11.756;2022-09-09T10:48:45;2.78;;;1.70;;
55312;SDS011;46892;45.668;11.756;2022-09-09T10:55:14;2.83;;;1.27;;
55312;SDS011;46892;45.668;11.756;2022-09-09T11:00:19;3.35;;;1.60;;
55312;SDS011;46892;45.668;11.756;2022-09-09T11:03:00;3.38;;;1.65;;
55312;SDS011;46892;45.668;11.756;2022-09-09T11:05:29;3.45;;;1.50;;
55312;SDS011;46892;45.668;11.756;2022-09-09T11:08:09;2.92;;;1.35;;
55312;SDS011;46892;45.668;11.756;2022-09-09T11:22:16;2.85;;;1.60;;
55312;SDS011;46892;45.668;11.756;2022-09-09T11:25:16;4.57;;;1.60;;
55312;SDS011;46892;45.668;11.756;2022-09-09T11:39:33;3.38;;;1.70;;
55312;SDS011;46892;45.668;11.756;2022-09-09T11:44:37;4.50;;;1.85;;
55312;SDS011;46892;45.668;11.756;2022-09-09T11:47:03;4.70;;;1.75;;
55312;SDS011;46892;45.668;11.756;2022-09-09T11:52:41;5.38;;;1.70;;
55312;SDS011;46892;45.668;11.756;2022-09-09T11:55:32;5.60;;;2.00;;
55312;SDS011;46892;45.668;11.756;2022-09-09T11:58:02;3.15;;;1.90;;
55312;SDS011;46892;45.668;11.756;2022-09-09T12:00:37;3.80;;;1.58;;
55312;SDS011;46892;45.668;11.756;2022-09-09T12:03:08;3.95;;;1.85;;
55312;SDS011;46892;45.668;11.756;2022-09-09T12:08:46;3.78;;;1.90;;
55312;SDS011;46892;45.668;11.756;2022-09-09T12:11:28;5.22;;;1.90;;
55312;SDS011;46892;45.668;11.756;2022-09-09T12:13:56;2.95;;;1.65;;
55312;SDS011;46892;45.668;11.756;2022-09-09T12:16:42;5.57;;;2.17;;
55312;SDS011;46892;45.668;11.756;2022-09-09T12:21:44;4.07;;;2.03;;
55312;SDS011;46892;45.668;11.756;2022-09-09T12:26:58;9.07;;;3.08;;
55312;SDS011;46892;45.668;11.756;2022-09-09T12:32:17;10.20;;;2.00;;
55312;SDS011;46892;45.668;11.756;2022-09-09T12:34:49;11.10;;;2.27;;
55312;SDS011;46892;45.668;11.756;2022-09-09T12:37:41;6.50;;;2.07;;
55312;SDS011;46892;45.668;11.756;2022-09-09T12:40:19;11.20;;;3.40;;
55312;SDS011;46892;45.668;11.756;2022-09-09T12:42:48;6.17;;;1.33;;
55312;SDS011;46892;45.668;11.756;2022-09-09T12:45:22;6.07;;;1.33;;
55312;SDS011;46892;45.668;11.756;2022-09-09T12:47:55;4.80;;;1.40;;
55312;SDS011;46892;45.668;11.756;2022-09-09T12:52:51;1.60;;;0.70;;
55312;SDS011;46892;45.668;11.756;2022-09-09T12:55:30;1.27;;;0.70;;
55312;SDS011;46892;45.668;11.756;2022-09-09T12:57:58;3.50;;;0.90;;
55312;SDS011;46892;45.668;11.756;2022-09-09T13:00:29;3.30;;;1.23;;
55312;SDS011;46892;45.668;11.756;2022-09-09T13:02:57;1.57;;;0.90;;
55312;SDS011;46892;45.668;11.756;2022-09-09T13:08:04;2.90;;;1.08;;
55312;SDS011;46892;45.668;11.756;2022-09-09T13:10:35;1.27;;;0.80;;
55312;SDS011;46892;45.668;11.756;2022-09-09T13:13:10;3.63;;;1.30;;
55312;SDS011;46892;45.668;11.756;2022-09-09T13:15:39;3.07;;;1.00;;
55312;SDS011;46892;45.668;11.756;2022-09-09T13:18:13;1.73;;;0.67;;
55312;SDS011;46892;45.668;11.756;2022-09-09T13:20:44;0.90;;;0.57;;
55312;SDS011;46892;45.668;11.756;2022-09-09T13:23:11;0.80;;;0.60;;
55312;SDS011;46892;45.668;11.756;2022-09-09T13:25:38;1.70;;;0.70;;
55312;SDS011;46892;45.668;11.756;2022-09-09T13:28:04;0.90;;;0.60;;
55312;SDS011;46892;45.668;11.756;2022-09-09T13:30:54;2.73;;;0.70;;
55312;SDS011;46892;45.668;11.756;2022-09-09T13:33:30;4.60;;;1.00;;
55312;SDS011;46892;45.668;11.756;2022-09-09T13:35:59;2.80;;;0.77;;
55312;SDS011;46892;45.668;11.756;2022-09-09T13:38:32;1.90;;;0.70;;
55312;SDS011;46892;45.668;11.756;2022-09-09T13:41:08;1.25;;;0.60;;
55312;SDS011;46892;45.668;11.756;2022-09-09T13:43:36;1.00;;;0.50;;
55312;SDS011;46892;45.668;11.756;2022-09-09T13:49:02;0.60;;;0.57;;
55312;SDS011;46892;45.668;11.756;2022-09-09T13:51:45;4.63;;;0.80;;
55312;SDS011;46892;45.668;11.756;2022-09-09T13:54:13;2.17;;;0.63;;
55312;SDS011;46892;45.668;11.756;2022-09-09T13:56:40;2.73;;;0.73;;
55312;SDS011;46892;45.668;11.756;2022-09-09T13:59:11;1.13;;;0.50;;
55312;SDS011;46892;45.668;11.756;2022-09-09T14:01:39;2.90;;;0.80;;
55312;SDS011;46892;45.668;11.756;2022-09-09T14:04:05;2.40;;;0.70;;
55312;SDS011;46892;45.668;11.756;2022-09-09T14:06:32;1.00;;;0.80;;
55312;SDS011;46892;45.668;11.756;2022-09-09T14:09:00;2.57;;;0.90;;
55312;SDS011;46892;45.668;11.756;2022-09-09T14:11:27;1.30;;;0.70;;
55312;SDS011;46892;45.668;11.756;2022-09-09T14:13:52;1.07;;;0.60;;
55312;SDS011;46892;45.668;11.756;2022-09-09T14:16:18;1.90;;;0.97;;
55312;SDS011;46892;45.668;11.756;2022-09-09T14:18:45;2.90;;;1.30;;
55312;SDS011;46892;45.668;11.756;2022-09-09T14:21:11;3.03;;;1.50;;
55312;SDS011;46892;45.668;11.756;2022-09-09T14:23:37;5.97;;;2.00;;
55312;SDS011;46892;45.668;11.756;2022-09-09T14:26:03;6.23;;;2.23;;
55312;SDS011;46892;45.668;11.756;2022-09-09T14:28:33;3.05;;;1.40;;
55312;SDS011;46892;45.668;11.756;2022-09-09T14:31:00;4.23;;;1.40;;
55312;SDS011;46892;45.668;11.756;2022-09-09T14:33:26;4.83;;;1.90;;
55312;SDS011;46892;45.668;11.756;2022-09-09T14:35:57;3.93;;;1.93;;
55312;SDS011;46892;45.668;11.756;2022-09-09T14:38:24;3.13;;;1.40;;
55312;SDS011;46892;45.668;11.756;2022-09-09T14:40:50;2.77;;;1.40;;
55312;SDS011;46892;45.668;11.756;2022-09-09T14:43:16;3.00;;;1.10;;
55312;SDS011;46892;45.668;11.756;2022-09-09T14:45:41;2.53;;;1.47;;
55312;SDS011;46892;45.668;11.756;2022-09-09T14:48:08;1.57;;;1.10;;
55312;SDS011;46892;45.668;11.756;2022-09-09T14:50:33;2.30;;;1.33;;
55312;SDS011;46892;45.668;11.756;2022-09-09T14:53:01;2.47;;;1.30;;
55312;SDS011;46892;45.668;11.756;2022-09-09T14:55:27;1.87;;;1.10;;
55312;SDS011;46892;45.668;11.756;2022-09-09T14:57:54;2.10;;;1.30;;
55312;SDS011;46892;45.668;11.756;2022-09-09T15:00:19;2.77;;;0.90;;
55312;SDS011;46892;45.668;11.756;2022-09-09T15:02:45;4.57;;;1.60;;
55312;SDS011;46892;45.668;11.756;2022-09-09T15:05:11;2.90;;;1.27;;
55312;SDS011;46892;45.668;11.756;2022-09-09T15:07:37;2.40;;;1.07;;
55312;SDS011;46892;45.668;11.756;2022-09-09T15:10:03;3.43;;;0.90;;
55312;SDS011;46892;45.668;11.756;2022-09-09T15:12:29;1.67;;;1.10;;
55312;SDS011;46892;45.668;11.756;2022-09-09T15:14:55;2.20;;;1.20;;
55312;SDS011;46892;45.668;11.756;2022-09-09T15:17:21;1.60;;;0.80;;
55312;SDS011;46892;45.668;11.756;2022-09-09T15:19:46;2.13;;;0.90;;
55312;SDS011;46892;45.668;11.756;2022-09-09T15:22:12;1.60;;;0.80;;
55312;SDS011;46892;45.668;11.756;2022-09-09T15:24:39;1.30;;;0.70;;
55312;SDS011;46892;45.668;11.756;2022-09-09T15:27:04;2.00;;;0.83;;
55312;SDS011;46892;45.668;11.756;2022-09-09T15:29:30;1.85;;;0.90;;
55312;SDS011;46892;45.668;11.756;2022-09-09T15:31:56;2.13;;;0.98;;
55312;SDS011;46892;45.668;11.756;2022-09-09T15:34:21;2.63;;;1.00;;
55312;SDS011;46892;45.668;11.756;2022-09-09T15:36:47;3.37;;;1.23;;
55312;SDS011;46892;45.668;11.756;2022-09-09T15:39:14;2.40;;;1.00;;
55312;SDS011;46892;45.668;11.756;2022-09-09T15:41:42;3.22;;;1.27;;
55312;SDS011;46892;45.668;11.756;2022-09-09T15:44:09;2.67;;;1.40;;
55312;SDS011;46892;45.668;11.756;2022-09-09T15:46:42;1.40;;;1.10;;
55312;SDS011;46892;45.668;11.756;2022-09-09T15:49:19;3.40;;;1.38;;
55312;SDS011;46892;45.668;11.756;2022-09-09T15:51:59;2.53;;;1.25;;
55312;SDS011;46892;45.668;11.756;2022-09-09T15:54:28;3.33;;;1.60;;
55312;SDS011;46892;45.668;11.756;2022-09-09T15:56:58;3.63;;;1.80;;
55312;SDS011;46892;45.668;11.756;2022-09-09T15:59:26;4.07;;;1.48;;
55312;SDS011;46892;45.668;11.756;2022-09-09T16:01:53;3.20;;;1.30;;
55312;SDS011;46892;45.668;11.756;2022-09-09T16:04:20;3.07;;;1.30;;
55312;SDS011;46892;45.668;11.756;2022-09-09T16:06:53;2.05;;;1.20;;
55312;SDS011;46892;45.668;11.756;2022-09-09T16:09:24;2.90;;;1.40;;
55312;SDS011;46892;45.668;11.756;2022-09-09T16:11:50;3.90;;;1.60;;
55312;SDS011;46892;45.668;11.756;2022-09-09T16:14:18;2.65;;;1.30;;
55312;SDS011;46892;45.668;11.756;2022-09-09T16:16:44;3.90;;;1.90;;
55312;SDS011;46892;45.668;11.756;2022-09-09T16:19:11;4.70;;;1.70;;
55312;SDS011;46892;45.668;11.756;2022-09-09T16:21:39;3.85;;;1.73;;
55312;SDS011;46892;45.668;11.756;2022-09-09T16:24:07;2.63;;;1.70;;
55312;SDS011;46892;45.668;11.756;2022-09-09T16:26:35;3.83;;;1.50;;
55312;SDS011;46892;45.668;11.756;2022-09-09T16:29:02;4.13;;;1.80;;
55312;SDS011;46892;45.668;11.756;2022-09-09T16:31:28;4.67;;;1.70;;
55312;SDS011;46892;45.668;11.756;2022-09-09T16:33:56;1.98;;;1.33;;
55312;SDS011;46892;45.668;11.756;2022-09-09T16:36:26;3.42;;;1.10;;
55312;SDS011;46892;45.668;11.756;2022-09-09T16:38:55;4.53;;;1.80;;
55312;SDS011;46892;45.668;11.756;2022-09-09T16:41:22;3.40;;;1.20;;
55312;SDS011;46892;45.668;11.756;2022-09-09T16:43:56;4.13;;;1.42;;
55312;SDS011;46892;45.668;11.756;2022-09-09T16:46:27;3.10;;;1.50;;
55312;SDS011;46892;45.668;11.756;2022-09-09T16:48:55;3.35;;;1.70;;
55312;SDS011;46892;45.668;11.756;2022-09-09T16:53:52;3.67;;;1.50;;
55312;SDS011;46892;45.668;11.756;2022-09-09T16:56:20;2.70;;;1.10;;
55312;SDS011;46892;45.668;11.756;2022-09-09T16:58:53;2.60;;;1.42;;
55312;SDS011;46892;45.668;11.756;2022-09-09T17:01:21;3.40;;;1.40;;
55312;SDS011;46892;45.668;11.756;2022-09-09T17:03:53;3.30;;;1.60;;
55312;SDS011;46892;45.668;11.756;2022-09-09T17:06:23;7.95;;;3.08;;
55312;SDS011;46892;45.668;11.756;2022-09-09T17:08:55;9.15;;;4.38;;
55312;SDS011;46892;45.668;11.756;2022-09-09T17:11:22;8.02;;;5.40;;
55312;SDS011;46892;45.668;11.756;2022-09-09T17:13:48;5.07;;;3.20;;
55312;SDS011;46892;45.668;11.756;2022-09-09T17:16:15;9.80;;;5.55;;
55312;SDS011;46892;45.668;11.756;2022-09-09T17:18:43;8.38;;;5.10;;
55312;SDS011;46892;45.668;11.756;2022-09-09T17:21:15;5.18;;;2.35;;
55312;SDS011;46892;45.668;11.756;2022-09-09T17:23:43;4.90;;;2.60;;
55312;SDS011;46892;45.668;11.756;2022-09-09T17:26:10;3.53;;;1.83;;
55312;SDS011;46892;45.668;11.756;2022-09-09T17:28:38;3.47;;;1.85;;
55312;SDS011;46892;45.668;11.756;2022-09-09T17:31:06;2.72;;;2.10;;
55312;SDS011;46892;45.668;11.756;2022-09-09T17:33:33;2.75;;;2.00;;